This is the latest recevied weather packets stored in our database for station/object N3MFL. If no packets are shown the sender has not sent any weather packets the latest 10 day(s).
| Time | Temp. | Humidity | Pressure | Rain* | Wind** | Luminosity | Snow |
|---|---|---|---|---|---|---|---|
| 1778184375 | 18.89° C | 27% | 1006.4 hPa | 0 mm | - | 489 W/m² | - |
| 1778184071 | 18.89° C | 30% | 1006.2 hPa | 0 mm | - | 502 W/m² | - |
| 1778183769 | 18.89° C | 31% | 1006.3 hPa | 0 mm | - | 513 W/m² | - |
| 1778183466 | 18.89° C | 33% | 1006.2 hPa | 0 mm | - | 523 W/m² | - |
| 1778183162 | 18.89° C | 31% | 1006.1 hPa | 0 mm | - | 535 W/m² | - |
| 1778182858 | 19.44° C | 31% | 1006.4 hPa | 0 mm | - | 546 W/m² | - |
| 1778182555 | 18.89° C | 33% | 1006.5 hPa | 0 mm | - | 556 W/m² | - |
| 1778182252 | 18.89° C | 30% | 1006.4 hPa | 0 mm | - | 549 W/m² | - |
| 1778181948 | 18.89° C | 34% | 1006.6 hPa | 0 mm | - | 579 W/m² | - |
| 1778181645 | 18.33° C | 34% | 1006.5 hPa | 0 mm | - | 591 W/m² | - |
| 1778181340 | 18.89° C | 30% | 1006.6 hPa | 0 mm | - | 516 W/m² | - |
| 1778181038 | 18.89° C | 32% | 1006.8 hPa | 0 mm | - | 340 W/m² | - |
| 1778180735 | 18.33° C | 31% | 1006.8 hPa | 0 mm | - | 285 W/m² | - |
| 1778180434 | 18.33° C | 37% | 1006.7 hPa | 0 mm | - | 624 W/m² | - |
| 1778180132 | 18.89° C | 33% | 1006.6 hPa | 0 mm | - | 410 W/m² | - |
| 1778179828 | 18.33° C | 37% | 1006.7 hPa | 0 mm | - | 379 W/m² | - |
| 1778179526 | 17.78° C | 33% | 1006.9 hPa | 0 mm | - | 235 W/m² | - |
| 1778179224 | 18.33° C | 31% | 1007.1 hPa | 0 mm | - | 246 W/m² | - |
| 1778178919 | 17.78° C | 34% | 1007 hPa | 0 mm | - | 95 W/m² | - |
| 1778178617 | 17.22° C | 33% | 1007.3 hPa | 0 mm | - | 57 W/m² | - |
| 1778178313 | 17.78° C | 33% | 1007.3 hPa | 0 mm | - | 89 W/m² | - |
| 1778178009 | 17.78° C | 33% | 1007.3 hPa | 0 mm | - | 160 W/m² | - |
| 1778177706 | 17.78° C | 40% | 1007.3 hPa | 0 mm | - | 224 W/m² | - |
| 1778177402 | 17.78° C | 32% | 1007.4 hPa | 0 mm | - | 89 W/m² | - |
| 1778177099 | 17.78° C | 34% | 1007.5 hPa | 0 mm | - | 55 W/m² | - |
* Rain latest hour (hover to see other rain measurements)
** Current wind speed in m/s (hover to see current wind gust speed)